CDT,Max TemperatureF,Mean TemperatureF,Min TemperatureF,Max Dew PointF,MeanDew PointF,Min DewpointF,Max Humidity, Mean Humidity, Min Humidity, Max Sea Level PressureIn, Mean Sea Level PressureIn, Min Sea Level PressureIn, Max VisibilityMiles, Mean VisibilityMiles, Min VisibilityMiles, Max Wind SpeedMPH, Mean Wind SpeedMPH, Max Gust SpeedMPH,PrecipitationIn, CloudCover, Events, WindDirDegrees
2013-6-1,62,56,51,50,45,41,77,64,52,30.10,29.88,29.71,10,10,5,31,17,43,0.00,8,,307
2013-6-2,69,56,44,45,41,39,87,58,33,30.17,30.10,30.02,10,10,10,12,7,20,0.00,0,,310
2013-6-3,77,64,51,52,47,43,76,52,38,30.03,29.91,29.79,10,10,10,23,12,32,0.00,0,,142
2013-6-4,77,68,60,59,55,52,77,64,53,30.04,29.93,29.82,10,10,8,16,9,22,0.00,4,,68
2013-6-5,71,63,55,55,46,43,82,54,38,30.10,30.06,30.02,10,10,6,21,11,25,0.00,2,,330
2013-6-6,71,62,53,52,46,45,77,58,38,30.06,30.03,30.00,10,10,10,17,8,24,0.00,5,,323
2013-6-7,75,60,46,50,45,43,87,55,34,30.07,30.00,29.89,10,10,10,10,3,,0.00,0,,203
2013-6-8,69,63,57,63,53,46,88,73,55,29.88,29.77,29.67,10,9,2,15,9,23,1.07,4,Thunderstorm,164
2013-6-9,71,66,60,57,54,52,77,68,56,29.89,29.81,29.74,10,10,10,29,14,34,0.00,5,,300
2013-6-10,84,66,48,61,56,45,88,66,42,29.91,29.86,29.79,10,9,0,14,5,20,0.00,0,,140
2013-6-11,93,80,66,70,64,61,88,66,38,29.83,29.75,29.67,10,10,7,18,10,25,0.00,0,,96
2013-6-12,86,73,60,66,59,50,88,60,40,30.11,29.86,29.67,10,10,5,25,13,32,0.05,0,Thunderstorm,342
2013-6-13,75,65,55,57,53,48,82,63,43,30.15,30.10,30.02,10,10,5,10,7,16,0.05,1,Thunderstorm,69
2013-6-14,96,79,62,72,62,54,77,65,41,30.06,29.88,29.71,10,10,5,18,9,26,0.18,2,Thunderstorm,140
2013-6-15,84,74,64,64,62,59,88,68,45,30.00,29.92,29.85,10,10,7,14,6,21,0.11,1,Thunderstorm,57
2013-6-16,86,75,64,63,59,54,88,61,35,30.05,30.01,29.97,10,9,3,14,5,29,0.01,0,,27
2013-6-17,86,72,59,57,55,52,82,55,33,30.08,30.03,29.99,10,10,10,15,4,20,0.00,0,,341
2013-6-18,82,71,60,59,55,52,77,56,39,30.12,30.05,29.99,10,10,8,9,3,,0.00,1,,107
2013-6-19,87,74,62,64,60,55,82,59,40,30.03,29.96,29.89,10,10,9,20,7,26,0.00,1,,142
2013-6-20,91,80,69,72,66,57,78,61,49,29.95,29.86,29.79,10,10,10,25,13,30,0.00,3,,157
2013-6-21,96,86,75,70,66,63,74,55,32,29.87,29.81,29.76,10,10,10,28,15,37,0.00,0,,165
2013-6-22,89,76,64,72,64,55,88,66,46,30.04,29.87,29.75,10,10,5,31,13,37,0.48,2,Thunderstorm,126
2013-6-23,80,71,62,66,62,57,83,70,53,29.96,29.88,29.72,10,10,10,23,12,34,0.28,3,Thunderstorm,55
2013-6-24,84,76,69,72,67,63,88,76,62,29.92,29.82,29.74,10,9,5,23,8,30,0.66,3,Thunderstorm,138
2013-6-25,87,78,69,73,68,61,89,70,58,29.81,29.74,29.68,10,10,3,16,7,22,0.00,3,Thunderstorm,130
2013-6-26,91,81,71,70,64,57,94,61,33,29.92,29.86,29.72,10,9,4,14,4,17,0.00,0,,321
2013-6-27,84,76,68,70,65,63,83,73,55,30.04,29.99,29.92,10,10,8,18,4,30,0.18,2,Thunderstorm,58
2013-6-28,84,74,64,66,58,54,83,57,35,30.07,30.02,29.98,10,10,10,20,9,28,0.00,1,,325
2013-6-29,80,70,60,57,54,54,77,57,39,30.02,29.99,29.97,10,10,10,28,11,33,0.00,2,,329
2013-6-30,77,67,57,57,53,48,82,62,38,30.17,30.10,30.02,10,10,8,16,8,23,0.00,1,,4